BAW735 LSZH-EGLL
Flight info
| Callsign | BAW735 |
|---|---|
| Flight time | 1h 20m |
| Altitude | 36000 |
| Route | VEBIT T10 TORPA DCT REKLA DCT RLP DCT ROTSI DCT KOTUN DCT NINAL DCT ABNUR DCT DIMAL DCT ALESO |
| Aircraft | A319/M-SDE3FGHIRWY/LB1 |
Departure
| Time | 2026-05-06 17:19 |
|---|---|
| Airport | Zürich Airport (LSZH) |
Arrival
| Time | 2026-05-06 18:40 |
|---|---|
| Airport | London Heathrow Airport (EGLL) |
| Time | Latitude | Longitude | Altitude | Speed | Heading |
|---|---|---|---|---|---|
| 2026-05-06 17:00 | 47.46161 | 8.55780 | 1397 ft | 0 kts | 186° |
| 2026-05-06 17:12 | 47.46167 | 8.55781 | 1407 ft | 4 kts | 185° |
| 2026-05-06 17:12 | 47.46194 | 8.55784 | 1404 ft | 4 kts | 178° |
| 2026-05-06 17:13 | 47.46220 | 8.55778 | 1399 ft | 4 kts | 156° |
| 2026-05-06 17:13 | 47.46237 | 8.55758 | 1402 ft | 2 kts | 98° |
| 2026-05-06 17:13 | 47.46237 | 8.55755 | 1402 ft | 0 kts | 96° |
| 2026-05-06 17:15 | 47.46237 | 8.55756 | 1402 ft | 1 kts | 96° |
| 2026-05-06 17:15 | 47.46232 | 8.55822 | 1400 ft | 11 kts | 96° |
| 2026-05-06 17:15 | 47.46222 | 8.55954 | 1405 ft | 14 kts | 102° |
| 2026-05-06 17:16 | 47.46161 | 8.56059 | 1404 ft | 13 kts | 138° |
| 2026-05-06 17:16 | 47.46091 | 8.56154 | 1406 ft | 15 kts | 137° |
| 2026-05-06 17:16 | 47.46010 | 8.56265 | 1404 ft | 16 kts | 137° |
| 2026-05-06 17:16 | 47.45938 | 8.56364 | 1407 ft | 14 kts | 137° |
| 2026-05-06 17:17 | 47.45851 | 8.56481 | 1400 ft | 19 kts | 137° |
| 2026-05-06 17:17 | 47.45792 | 8.56664 | 1398 ft | 23 kts | 94° |
| 2026-05-06 17:17 | 47.45778 | 8.56875 | 1396 ft | 15 kts | 96° |
| 2026-05-06 17:17 | 47.45741 | 8.57028 | 1400 ft | 17 kts | 144° |
| 2026-05-06 17:18 | 47.45664 | 8.57024 | 1397 ft | 6 kts | 217° |
| 2026-05-06 17:18 | 47.45667 | 8.56946 | 1399 ft | 12 kts | 276° |
| 2026-05-06 17:18 | 47.45696 | 8.56518 | 1398 ft | 75 kts | 276° |
| 2026-05-06 17:18 | 47.45773 | 8.55455 | 1395 ft | 132 kts | 276° |
| 2026-05-06 17:19 | 47.45878 | 8.53941 | 1707 ft | 149 kts | 273° |
| 2026-05-06 17:19 | 47.45993 | 8.52439 | 2347 ft | 146 kts | 276° |
| 2026-05-06 17:19 | 47.46108 | 8.50938 | 2843 ft | 151 kts | 275° |
| 2026-05-06 17:19 | 47.46225 | 8.49279 | 3115 ft | 173 kts | 275° |
| 2026-05-06 17:20 | 47.46047 | 8.47427 | 3357 ft | 198 kts | 241° |
| 2026-05-06 17:20 | 47.44939 | 8.46056 | 3637 ft | 225 kts | 209° |
| 2026-05-06 17:20 | 47.43568 | 8.44720 | 4084 ft | 248 kts | 224° |
| 2026-05-06 17:20 | 47.42403 | 8.42767 | 4925 ft | 257 kts | 234° |
| 2026-05-06 17:21 | 47.41386 | 8.40559 | 5910 ft | 261 kts | 237° |
| 2026-05-06 17:21 | 47.40420 | 8.38276 | 6855 ft | 265 kts | 237° |
| 2026-05-06 17:21 | 47.39437 | 8.35959 | 7794 ft | 267 kts | 237° |
| 2026-05-06 17:21 | 47.38541 | 8.33530 | 8691 ft | 273 kts | 250° |
| 2026-05-06 17:22 | 47.38325 | 8.30757 | 9805 ft | 274 kts | 272° |
| 2026-05-06 17:22 | 47.38515 | 8.27897 | 10338 ft | 291 kts | 274° |
| 2026-05-06 17:22 | 47.38738 | 8.24817 | 10763 ft | 308 kts | 274° |
| 2026-05-06 17:22 | 47.38973 | 8.21643 | 11472 ft | 314 kts | 274° |
| 2026-05-06 17:23 | 47.39212 | 8.18415 | 12239 ft | 319 kts | 274° |
| 2026-05-06 17:23 | 47.39453 | 8.15137 | 12998 ft | 323 kts | 273° |
| 2026-05-06 17:23 | 47.39694 | 8.11812 | 13734 ft | 328 kts | 273° |
| 2026-05-06 17:23 | 47.39935 | 8.08441 | 14388 ft | 332 kts | 273° |
| 2026-05-06 17:24 | 47.40173 | 8.05040 | 15048 ft | 335 kts | 273° |
| 2026-05-06 17:24 | 47.40413 | 8.01591 | 15704 ft | 339 kts | 273° |
| 2026-05-06 17:24 | 47.40658 | 7.98109 | 16344 ft | 343 kts | 273° |
| 2026-05-06 17:24 | 47.40905 | 7.94586 | 16992 ft | 347 kts | 273° |
| 2026-05-06 17:25 | 47.41152 | 7.91019 | 17633 ft | 351 kts | 273° |
| 2026-05-06 17:25 | 47.41400 | 7.87409 | 18256 ft | 355 kts | 273° |
| 2026-05-06 17:25 | 47.41650 | 7.83757 | 18811 ft | 359 kts | 273° |
| 2026-05-06 17:25 | 47.41903 | 7.80078 | 19382 ft | 363 kts | 273° |
| 2026-05-06 17:26 | 47.42159 | 7.76342 | 19963 ft | 366 kts | 273° |
| 2026-05-06 17:26 | 47.42413 | 7.72584 | 20534 ft | 370 kts | 273° |
| 2026-05-06 17:26 | 47.42669 | 7.68782 | 21088 ft | 373 kts | 273° |
| 2026-05-06 17:26 | 47.42928 | 7.64953 | 21633 ft | 377 kts | 273° |
| 2026-05-06 17:27 | 47.43189 | 7.61082 | 22177 ft | 380 kts | 273° |
| 2026-05-06 17:27 | 47.43450 | 7.57183 | 22709 ft | 384 kts | 273° |
| 2026-05-06 17:27 | 47.43709 | 7.53236 | 23257 ft | 387 kts | 273° |
| 2026-05-06 17:27 | 47.43969 | 7.49258 | 23774 ft | 391 kts | 272° |
| 2026-05-06 17:28 | 47.44230 | 7.45249 | 24241 ft | 393 kts | 272° |
| 2026-05-06 17:28 | 47.44491 | 7.41213 | 24705 ft | 396 kts | 272° |
| 2026-05-06 17:28 | 47.44753 | 7.37143 | 25151 ft | 399 kts | 272° |
| 2026-05-06 17:28 | 47.45017 | 7.33044 | 25603 ft | 401 kts | 272° |
| 2026-05-06 17:29 | 47.45281 | 7.28928 | 26048 ft | 404 kts | 272° |
| 2026-05-06 17:29 | 47.45544 | 7.24835 | 26488 ft | 406 kts | 272° |
| 2026-05-06 17:29 | 47.45811 | 7.20665 | 26923 ft | 409 kts | 272° |
| 2026-05-06 17:29 | 47.46077 | 7.16467 | 27352 ft | 412 kts | 272° |
| 2026-05-06 17:30 | 47.46343 | 7.12243 | 27785 ft | 414 kts | 272° |
| 2026-05-06 17:30 | 47.46608 | 7.07990 | 28221 ft | 417 kts | 273° |
| 2026-05-06 17:30 | 47.46872 | 7.03688 | 28569 ft | 422 kts | 273° |
| 2026-05-06 17:30 | 47.47137 | 6.99353 | 28947 ft | 425 kts | 273° |
| 2026-05-06 17:31 | 47.47404 | 6.94982 | 29350 ft | 428 kts | 273° |
| 2026-05-06 17:31 | 47.47673 | 6.90582 | 29738 ft | 431 kts | 273° |
| 2026-05-06 17:31 | 47.47938 | 6.86214 | 30097 ft | 434 kts | 273° |
| 2026-05-06 17:31 | 47.48205 | 6.81766 | 30421 ft | 436 kts | 273° |
| 2026-05-06 17:32 | 47.48469 | 6.77292 | 30743 ft | 438 kts | 272° |
| 2026-05-06 17:32 | 47.48734 | 6.72786 | 31077 ft | 440 kts | 272° |
| 2026-05-06 17:32 | 47.48999 | 6.68279 | 31401 ft | 441 kts | 272° |
| 2026-05-06 17:32 | 47.49262 | 6.63746 | 31765 ft | 442 kts | 273° |
| 2026-05-06 17:33 | 47.49525 | 6.59213 | 32181 ft | 442 kts | 272° |
| 2026-05-06 17:33 | 47.49788 | 6.54676 | 32637 ft | 440 kts | 272° |
| 2026-05-06 17:33 | 47.50045 | 6.50162 | 33105 ft | 439 kts | 272° |
| 2026-05-06 17:33 | 47.50295 | 6.45722 | 33566 ft | 437 kts | 272° |
| 2026-05-06 17:34 | 47.50546 | 6.41256 | 34018 ft | 435 kts | 271° |
| 2026-05-06 17:34 | 47.50795 | 6.36802 | 34390 ft | 434 kts | 271° |
| 2026-05-06 17:34 | 47.51043 | 6.32343 | 34740 ft | 433 kts | 271° |
| 2026-05-06 17:34 | 47.51287 | 6.27911 | 35067 ft | 432 kts | 271° |
| 2026-05-06 17:35 | 47.51529 | 6.23475 | 35383 ft | 432 kts | 272° |
| 2026-05-06 17:35 | 47.51766 | 6.19043 | 35665 ft | 432 kts | 272° |
| 2026-05-06 17:35 | 47.52005 | 6.14604 | 35861 ft | 433 kts | 272° |
| 2026-05-06 17:36 | 47.52710 | 6.01417 | 35903 ft | 429 kts | 272° |
| 2026-05-06 17:36 | 47.53183 | 5.92622 | 35903 ft | 429 kts | 275° |
| 2026-05-06 17:37 | 47.54957 | 5.84126 | 35914 ft | 437 kts | 297° |
| 2026-05-06 17:37 | 47.56728 | 5.80532 | 35905 ft | 441 kts | 311° |
| 2026-05-06 17:37 | 47.58927 | 5.77336 | 35907 ft | 443 kts | 313° |
| 2026-05-06 17:38 | 47.63407 | 5.70999 | 35905 ft | 444 kts | 314° |
| 2026-05-06 17:38 | 47.67869 | 5.64741 | 35907 ft | 444 kts | 314° |
| 2026-05-06 17:39 | 47.72356 | 5.58430 | 35902 ft | 444 kts | 314° |
| 2026-05-06 17:39 | 47.76806 | 5.52125 | 35901 ft | 443 kts | 314° |
| 2026-05-06 17:40 | 47.81267 | 5.45772 | 35908 ft | 443 kts | 314° |
| 2026-05-06 17:40 | 47.85727 | 5.39401 | 35913 ft | 443 kts | 314° |
| 2026-05-06 17:41 | 47.90176 | 5.33047 | 35912 ft | 443 kts | 314° |
| 2026-05-06 17:41 | 47.94607 | 5.26722 | 35906 ft | 443 kts | 314° |
| 2026-05-06 17:42 | 47.99060 | 5.20348 | 35915 ft | 442 kts | 314° |
| 2026-05-06 17:42 | 48.03496 | 5.13968 | 35902 ft | 442 kts | 314° |
| 2026-05-06 17:43 | 48.07926 | 5.07572 | 35917 ft | 442 kts | 314° |
| 2026-05-06 17:43 | 48.12319 | 5.01219 | 35915 ft | 442 kts | 314° |
| 2026-05-06 17:44 | 48.16748 | 4.94800 | 35911 ft | 442 kts | 314° |
| 2026-05-06 17:44 | 48.21168 | 4.88395 | 35908 ft | 441 kts | 314° |
| 2026-05-06 17:45 | 48.25485 | 4.82114 | 35904 ft | 441 kts | 314° |
| 2026-05-06 17:45 | 48.29854 | 4.75715 | 35905 ft | 441 kts | 314° |
| 2026-05-06 17:46 | 48.34250 | 4.69257 | 35923 ft | 441 kts | 314° |
| 2026-05-06 17:46 | 48.38650 | 4.62805 | 35922 ft | 440 kts | 314° |
| 2026-05-06 17:47 | 48.43038 | 4.56356 | 35915 ft | 440 kts | 314° |
| 2026-05-06 17:47 | 48.47390 | 4.49941 | 35916 ft | 440 kts | 314° |
| 2026-05-06 17:48 | 48.51755 | 4.43482 | 35915 ft | 440 kts | 314° |
| 2026-05-06 17:48 | 48.56128 | 4.36987 | 35915 ft | 439 kts | 314° |
| 2026-05-06 17:49 | 48.59756 | 4.31595 | 35922 ft | 439 kts | 314° |
| 2026-05-06 17:49 | 48.64116 | 4.25113 | 35924 ft | 439 kts | 314° |
| 2026-05-06 17:50 | 48.68460 | 4.18628 | 35924 ft | 438 kts | 314° |
| 2026-05-06 17:50 | 48.72774 | 4.12155 | 35922 ft | 438 kts | 314° |
| 2026-05-06 17:51 | 48.77124 | 4.05610 | 35919 ft | 438 kts | 314° |
| 2026-05-06 17:51 | 48.81417 | 3.99141 | 35917 ft | 438 kts | 314° |
| 2026-05-06 17:52 | 48.85748 | 3.92618 | 35916 ft | 438 kts | 314° |
| 2026-05-06 17:52 | 48.90069 | 3.86081 | 35914 ft | 438 kts | 314° |
| 2026-05-06 17:53 | 48.94382 | 3.79543 | 35913 ft | 437 kts | 314° |
| 2026-05-06 17:53 | 48.98697 | 3.72991 | 35912 ft | 437 kts | 314° |
| 2026-05-06 17:54 | 49.02973 | 3.66469 | 35917 ft | 438 kts | 313° |
| 2026-05-06 17:54 | 49.07268 | 3.59895 | 35918 ft | 438 kts | 314° |
| 2026-05-06 17:55 | 49.11569 | 3.53304 | 35918 ft | 438 kts | 313° |
| 2026-05-06 17:55 | 49.15861 | 3.46710 | 35932 ft | 437 kts | 313° |
| 2026-05-06 17:56 | 49.20133 | 3.40120 | 35931 ft | 436 kts | 314° |
| 2026-05-06 17:56 | 49.24407 | 3.33531 | 35929 ft | 436 kts | 314° |
| 2026-05-06 17:57 | 49.28655 | 3.26954 | 35924 ft | 435 kts | 313° |
| 2026-05-06 17:57 | 49.32892 | 3.20359 | 35923 ft | 435 kts | 313° |
| 2026-05-06 17:58 | 49.37146 | 3.13733 | 35920 ft | 435 kts | 313° |
| 2026-05-06 17:58 | 49.41378 | 3.07129 | 35924 ft | 435 kts | 313° |
| 2026-05-06 17:59 | 49.45621 | 3.00502 | 35920 ft | 434 kts | 313° |
| 2026-05-06 17:59 | 49.49852 | 2.93875 | 35921 ft | 434 kts | 313° |
| 2026-05-06 18:00 | 49.54080 | 2.87218 | 35923 ft | 434 kts | 313° |
| 2026-05-06 18:00 | 49.58291 | 2.80571 | 35926 ft | 433 kts | 313° |
| 2026-05-06 18:01 | 49.62506 | 2.73931 | 35925 ft | 433 kts | 313° |
| 2026-05-06 18:01 | 49.66714 | 2.67280 | 35929 ft | 432 kts | 313° |
| 2026-05-06 18:02 | 49.70871 | 2.60659 | 35936 ft | 431 kts | 313° |
| 2026-05-06 18:02 | 49.75037 | 2.53997 | 35935 ft | 430 kts | 313° |
| 2026-05-06 18:03 | 49.79204 | 2.47326 | 35934 ft | 430 kts | 313° |
| 2026-05-06 18:03 | 49.83346 | 2.40708 | 35934 ft | 429 kts | 313° |
| 2026-05-06 18:04 | 49.87484 | 2.34047 | 35932 ft | 429 kts | 313° |
| 2026-05-06 18:04 | 49.91633 | 2.27355 | 35932 ft | 428 kts | 313° |
| 2026-05-06 18:05 | 49.95749 | 2.20705 | 35937 ft | 427 kts | 313° |
| 2026-05-06 18:05 | 49.99860 | 2.14043 | 35936 ft | 427 kts | 313° |
| 2026-05-06 18:06 | 50.03963 | 2.07377 | 35934 ft | 427 kts | 313° |
| 2026-05-06 18:06 | 50.08062 | 2.00701 | 35942 ft | 427 kts | 313° |
| 2026-05-06 18:07 | 50.12168 | 1.94017 | 35935 ft | 427 kts | 313° |
| 2026-05-06 18:07 | 50.16260 | 1.87316 | 35921 ft | 427 kts | 313° |
| 2026-05-06 18:08 | 50.18297 | 1.84004 | 35677 ft | 426 kts | 313° |
| 2026-05-06 18:08 | 50.20379 | 1.80747 | 35270 ft | 423 kts | 315° |
| 2026-05-06 18:08 | 50.22486 | 1.77553 | 34841 ft | 421 kts | 316° |
| 2026-05-06 18:08 | 50.24595 | 1.74406 | 34389 ft | 419 kts | 316° |
| 2026-05-06 18:09 | 50.26697 | 1.71273 | 33936 ft | 417 kts | 316° |
| 2026-05-06 18:09 | 50.28784 | 1.68139 | 33440 ft | 414 kts | 316° |
| 2026-05-06 18:09 | 50.30841 | 1.65019 | 32990 ft | 410 kts | 315° |
| 2026-05-06 18:09 | 50.32868 | 1.61915 | 32546 ft | 406 kts | 315° |
| 2026-05-06 18:10 | 50.34873 | 1.58832 | 32105 ft | 402 kts | 315° |
| 2026-05-06 18:10 | 50.36870 | 1.55758 | 31666 ft | 399 kts | 315° |
| 2026-05-06 18:10 | 50.38845 | 1.52719 | 31242 ft | 395 kts | 314° |
| 2026-05-06 18:10 | 50.40795 | 1.49713 | 30822 ft | 392 kts | 314° |
| 2026-05-06 18:11 | 50.42732 | 1.46727 | 30415 ft | 388 kts | 314° |
| 2026-05-06 18:11 | 50.44652 | 1.43765 | 29999 ft | 386 kts | 314° |
| 2026-05-06 18:11 | 50.46531 | 1.40861 | 29577 ft | 382 kts | 314° |
| 2026-05-06 18:11 | 50.48437 | 1.37909 | 29184 ft | 378 kts | 314° |
| 2026-05-06 18:12 | 50.50286 | 1.35009 | 28805 ft | 374 kts | 313° |
| 2026-05-06 18:12 | 50.52050 | 1.32097 | 28446 ft | 371 kts | 311° |
| 2026-05-06 18:12 | 50.53789 | 1.29127 | 28080 ft | 369 kts | 311° |
| 2026-05-06 18:12 | 50.55520 | 1.26127 | 27671 ft | 369 kts | 311° |
| 2026-05-06 18:13 | 50.57241 | 1.23142 | 27269 ft | 368 kts | 311° |
| 2026-05-06 18:13 | 50.58982 | 1.20200 | 26873 ft | 366 kts | 312° |
| 2026-05-06 18:13 | 50.60758 | 1.17340 | 26482 ft | 364 kts | 314° |
| 2026-05-06 18:13 | 50.62549 | 1.14535 | 26103 ft | 362 kts | 314° |
| 2026-05-06 18:14 | 50.64343 | 1.11755 | 25734 ft | 360 kts | 314° |
| 2026-05-06 18:14 | 50.66119 | 1.08997 | 25361 ft | 358 kts | 314° |
| 2026-05-06 18:14 | 50.67877 | 1.06248 | 24994 ft | 355 kts | 314° |
| 2026-05-06 18:14 | 50.69622 | 1.03500 | 24631 ft | 353 kts | 314° |
| 2026-05-06 18:15 | 50.71352 | 1.00758 | 24274 ft | 351 kts | 313° |
| 2026-05-06 18:15 | 50.73068 | 0.98030 | 23916 ft | 349 kts | 313° |
| 2026-05-06 18:15 | 50.74777 | 0.95310 | 23483 ft | 348 kts | 313° |
| 2026-05-06 18:15 | 50.76479 | 0.92600 | 22970 ft | 347 kts | 313° |
| 2026-05-06 18:16 | 50.78177 | 0.89897 | 22479 ft | 345 kts | 313° |
| 2026-05-06 18:16 | 50.79866 | 0.87204 | 21998 ft | 343 kts | 313° |
| 2026-05-06 18:16 | 50.81539 | 0.84529 | 21571 ft | 340 kts | 313° |
| 2026-05-06 18:16 | 50.83196 | 0.81874 | 21152 ft | 338 kts | 313° |
| 2026-05-06 18:17 | 50.84838 | 0.79237 | 20733 ft | 335 kts | 313° |
| 2026-05-06 18:17 | 50.86464 | 0.76624 | 20332 ft | 332 kts | 313° |
| 2026-05-06 18:17 | 50.88079 | 0.74028 | 19931 ft | 330 kts | 313° |
| 2026-05-06 18:17 | 50.89683 | 0.71449 | 19533 ft | 327 kts | 313° |
| 2026-05-06 18:18 | 50.91274 | 0.68895 | 19157 ft | 324 kts | 313° |
| 2026-05-06 18:18 | 50.92852 | 0.66360 | 18824 ft | 322 kts | 313° |
| 2026-05-06 18:18 | 50.94417 | 0.63842 | 18484 ft | 320 kts | 313° |
| 2026-05-06 18:18 | 50.95969 | 0.61336 | 18135 ft | 318 kts | 313° |
| 2026-05-06 18:19 | 50.97513 | 0.58844 | 17758 ft | 316 kts | 313° |
| 2026-05-06 18:19 | 50.99051 | 0.56359 | 17379 ft | 314 kts | 313° |
| 2026-05-06 18:19 | 51.00578 | 0.53889 | 16988 ft | 313 kts | 313° |
| 2026-05-06 18:19 | 51.02080 | 0.51454 | 16597 ft | 311 kts | 313° |
| 2026-05-06 18:20 | 51.03588 | 0.49001 | 16200 ft | 309 kts | 313° |
| 2026-05-06 18:20 | 51.05089 | 0.46559 | 15783 ft | 308 kts | 314° |
| 2026-05-06 18:20 | 51.06603 | 0.44101 | 15373 ft | 307 kts | 314° |
| 2026-05-06 18:20 | 51.08092 | 0.41743 | 14983 ft | 305 kts | 315° |
| 2026-05-06 18:21 | 51.09622 | 0.39407 | 14561 ft | 305 kts | 316° |
| 2026-05-06 18:21 | 51.11160 | 0.37090 | 14172 ft | 303 kts | 316° |
| 2026-05-06 18:21 | 51.12692 | 0.34784 | 13784 ft | 302 kts | 316° |
| 2026-05-06 18:21 | 51.14214 | 0.32484 | 13356 ft | 301 kts | 316° |
| 2026-05-06 18:22 | 51.15727 | 0.30187 | 12911 ft | 300 kts | 316° |
| 2026-05-06 18:22 | 51.17237 | 0.27888 | 12472 ft | 300 kts | 316° |
| 2026-05-06 18:22 | 51.18741 | 0.25586 | 12019 ft | 299 kts | 316° |
| 2026-05-06 18:22 | 51.20239 | 0.23287 | 11588 ft | 298 kts | 316° |
| 2026-05-06 18:23 | 51.21733 | 0.20990 | 11158 ft | 297 kts | 316° |
| 2026-05-06 18:23 | 51.23217 | 0.18705 | 10732 ft | 295 kts | 316° |
| 2026-05-06 18:23 | 51.24672 | 0.16468 | 10304 ft | 286 kts | 316° |
| 2026-05-06 18:23 | 51.26082 | 0.14297 | 9865 ft | 278 kts | 316° |
| 2026-05-06 18:24 | 51.27457 | 0.12177 | 9380 ft | 271 kts | 316° |
| 2026-05-06 18:24 | 51.28799 | 0.10102 | 8920 ft | 266 kts | 316° |
| 2026-05-06 18:24 | 51.30112 | 0.08072 | 8476 ft | 260 kts | 316° |
| 2026-05-06 18:24 | 51.31404 | 0.06077 | 8056 ft | 254 kts | 316° |
| 2026-05-06 18:25 | 51.32515 | 0.04028 | 7979 ft | 241 kts | 301° |
| 2026-05-06 18:25 | 51.33069 | 0.01496 | 8011 ft | 240 kts | 283° |
| 2026-05-06 18:25 | 51.33401 | -0.01124 | 7999 ft | 241 kts | 282° |
| 2026-05-06 18:25 | 51.33698 | -0.03752 | 7993 ft | 239 kts | 281° |
| 2026-05-06 18:26 | 51.33972 | -0.06365 | 7788 ft | 237 kts | 281° |
| 2026-05-06 18:26 | 51.34249 | -0.08967 | 7457 ft | 237 kts | 281° |
| 2026-05-06 18:26 | 51.34530 | -0.11566 | 7161 ft | 237 kts | 282° |
| 2026-05-06 18:26 | 51.34795 | -0.14152 | 7011 ft | 235 kts | 281° |
| 2026-05-06 18:27 | 51.35057 | -0.16692 | 6994 ft | 235 kts | 281° |
| 2026-05-06 18:27 | 51.35317 | -0.19280 | 6994 ft | 235 kts | 281° |
| 2026-05-06 18:27 | 51.35574 | -0.21857 | 6997 ft | 234 kts | 281° |
| 2026-05-06 18:27 | 51.35827 | -0.24421 | 7002 ft | 234 kts | 281° |
| 2026-05-06 18:28 | 51.36093 | -0.27015 | 6999 ft | 236 kts | 282° |
| 2026-05-06 18:28 | 51.36369 | -0.29606 | 6999 ft | 236 kts | 281° |
| 2026-05-06 18:28 | 51.36640 | -0.32193 | 6994 ft | 235 kts | 282° |
| 2026-05-06 18:28 | 51.36901 | -0.34773 | 6999 ft | 234 kts | 280° |
| 2026-05-06 18:29 | 51.37168 | -0.37356 | 7003 ft | 235 kts | 281° |
| 2026-05-06 18:29 | 51.37435 | -0.39943 | 7000 ft | 236 kts | 281° |
| 2026-05-06 18:29 | 51.37715 | -0.42538 | 7004 ft | 237 kts | 281° |
| 2026-05-06 18:29 | 51.38000 | -0.45140 | 7004 ft | 237 kts | 281° |
| 2026-05-06 18:30 | 51.38282 | -0.47740 | 6997 ft | 237 kts | 281° |
| 2026-05-06 18:30 | 51.38550 | -0.50321 | 6827 ft | 234 kts | 281° |
| 2026-05-06 18:30 | 51.38754 | -0.52902 | 6529 ft | 234 kts | 274° |
| 2026-05-06 18:30 | 51.38760 | -0.55508 | 6220 ft | 234 kts | 271° |
| 2026-05-06 18:31 | 51.38748 | -0.58110 | 5907 ft | 234 kts | 272° |
| 2026-05-06 18:31 | 51.38719 | -0.60699 | 5612 ft | 232 kts | 271° |
| 2026-05-06 18:31 | 51.38692 | -0.62404 | 5376 ft | 231 kts | 271° |
| 2026-05-06 18:31 | 51.38650 | -0.65801 | 5004 ft | 229 kts | 271° |
| 2026-05-06 18:32 | 51.38617 | -0.68360 | 5003 ft | 231 kts | 271° |
| 2026-05-06 18:32 | 51.38605 | -0.70093 | 4833 ft | 229 kts | 272° |
| 2026-05-06 18:32 | 51.38561 | -0.73474 | 4309 ft | 229 kts | 270° |
| 2026-05-06 18:32 | 51.38534 | -0.75958 | 4140 ft | 215 kts | 271° |
| 2026-05-06 18:33 | 51.38590 | -0.77513 | 4069 ft | 199 kts | 287° |
| 2026-05-06 18:33 | 51.39102 | -0.79461 | 4011 ft | 186 kts | 300° |
| 2026-05-06 18:33 | 51.39691 | -0.81239 | 4012 ft | 183 kts | 301° |
| 2026-05-06 18:33 | 51.40315 | -0.83026 | 4009 ft | 183 kts | 305° |
| 2026-05-06 18:34 | 51.41310 | -0.84208 | 4007 ft | 180 kts | 345° |
| 2026-05-06 18:34 | 51.42532 | -0.84010 | 4010 ft | 182 kts | 25° |
| 2026-05-06 18:34 | 51.43496 | -0.82701 | 4010 ft | 182 kts | 45° |
| 2026-05-06 18:34 | 51.44346 | -0.81211 | 3699 ft | 181 kts | 47° |
| 2026-05-06 18:35 | 51.45193 | -0.79711 | 3370 ft | 181 kts | 45° |
| 2026-05-06 18:35 | 51.46028 | -0.78223 | 3071 ft | 178 kts | 45° |
| 2026-05-06 18:35 | 51.46848 | -0.76744 | 3009 ft | 178 kts | 46° |
| 2026-05-06 18:35 | 51.47486 | -0.75032 | 3007 ft | 182 kts | 70° |
| 2026-05-06 18:36 | 51.47626 | -0.72998 | 3012 ft | 186 kts | 86° |
| 2026-05-06 18:36 | 51.47636 | -0.70926 | 2860 ft | 186 kts | 86° |
| 2026-05-06 18:36 | 51.47647 | -0.68866 | 2638 ft | 184 kts | 86° |
| 2026-05-06 18:36 | 51.47658 | -0.66826 | 2395 ft | 181 kts | 85° |
| 2026-05-06 18:37 | 51.47669 | -0.64833 | 2145 ft | 177 kts | 86° |
| 2026-05-06 18:37 | 51.47680 | -0.62886 | 1907 ft | 172 kts | 86° |
| 2026-05-06 18:37 | 51.47689 | -0.61011 | 1678 ft | 164 kts | 86° |
| 2026-05-06 18:37 | 51.47700 | -0.59189 | 1463 ft | 162 kts | 86° |
| 2026-05-06 18:38 | 51.47708 | -0.57401 | 1247 ft | 157 kts | 85° |
| 2026-05-06 18:38 | 51.47712 | -0.55718 | 1009 ft | 148 kts | 86° |
| 2026-05-06 18:38 | 51.47719 | -0.54087 | 798 ft | 144 kts | 86° |
| 2026-05-06 18:38 | 51.47728 | -0.52501 | 597 ft | 140 kts | 85° |
| 2026-05-06 18:39 | 51.47737 | -0.50949 | 427 ft | 138 kts | 85° |
| 2026-05-06 18:39 | 51.47746 | -0.49384 | 246 ft | 140 kts | 86° |
| 2026-05-06 18:39 | 51.47750 | -0.47846 | 97 ft | 132 kts | 87° |
| 2026-05-06 18:40 | 51.47759 | -0.45762 | 84 ft | 37 kts | 90° |
| 2026-05-06 18:40 | 51.47749 | -0.45515 | 87 ft | 18 kts | 121° |
| 2026-05-06 18:40 | 51.47630 | -0.45474 | 90 ft | 17 kts | 187° |
| 2026-05-06 18:40 | 51.47596 | -0.45600 | 86 ft | 12 kts | 269° |
| 2026-05-06 18:41 | 51.47595 | -0.45752 | 90 ft | 15 kts | 270° |
| 2026-05-06 18:41 | 51.47596 | -0.45937 | 87 ft | 18 kts | 270° |
| 2026-05-06 18:41 | 51.47595 | -0.46153 | 86 ft | 21 kts | 270° |
| 2026-05-06 18:41 | 51.47594 | -0.46398 | 86 ft | 23 kts | 270° |
| 2026-05-06 18:42 | 51.47593 | -0.46673 | 86 ft | 26 kts | 269° |
| 2026-05-06 18:42 | 51.47583 | -0.46961 | 88 ft | 27 kts | 268° |
| 2026-05-06 18:42 | 51.47581 | -0.47273 | 91 ft | 29 kts | 269° |
| 2026-05-06 18:42 | 51.47581 | -0.47606 | 88 ft | 32 kts | 269° |
| 2026-05-06 18:43 | 51.47579 | -0.47965 | 86 ft | 29 kts | 270° |
| 2026-05-06 18:43 | 51.47580 | -0.48228 | 88 ft | 14 kts | 270° |
| 2026-05-06 18:43 | 51.47578 | -0.48401 | 86 ft | 17 kts | 268° |
| 2026-05-06 18:43 | 51.47490 | -0.48478 | 86 ft | 19 kts | 176° |
| 2026-05-06 18:44 | 51.47344 | -0.48475 | 86 ft | 22 kts | 179° |
| 2026-05-06 18:44 | 51.47177 | -0.48474 | 86 ft | 20 kts | 180° |
| 2026-05-06 18:44 | 51.47066 | -0.48472 | 86 ft | 8 kts | 182° |
| 2026-05-06 18:44 | 51.47048 | -0.48546 | 86 ft | 8 kts | 276° |